createdAt,value
2019-03-21T00:00:35.848Z,9.38
2019-03-21T00:03:07.025Z,9.63
2019-03-21T00:05:38.501Z,8.97
2019-03-21T00:08:11.362Z,8.80
2019-03-21T00:11:36.449Z,9.60
2019-03-21T00:14:32.542Z,9.57
2019-03-21T00:17:03.715Z,8.77
2019-03-21T00:19:34.397Z,8.10
2019-03-21T00:22:05.696Z,8.87
2019-03-21T00:24:36.375Z,9.20
2019-03-21T00:27:07.446Z,9.10
2019-03-21T00:29:38.149Z,8.43
2019-03-21T00:32:08.975Z,9.53
2019-03-21T00:34:39.670Z,9.10
2019-03-21T00:37:10.413Z,10.07
2019-03-21T00:39:41.125Z,9.70
2019-03-21T00:42:11.812Z,9.00
2019-03-21T00:44:42.650Z,9.00
2019-03-21T00:47:13.324Z,8.90
2019-03-21T00:49:43.993Z,9.67
2019-03-21T00:52:14.658Z,8.10
2019-03-21T00:54:46.393Z,9.17
2019-03-21T00:57:17.116Z,9.00
2019-03-21T00:59:47.774Z,8.33
2019-03-21T01:02:18.451Z,9.67
2019-03-21T01:04:49.228Z,9.40
2019-03-21T01:07:19.971Z,8.97
2019-03-21T01:09:50.637Z,8.83
2019-03-21T01:12:21.316Z,8.17
2019-03-21T01:14:52.093Z,8.87
2019-03-21T01:17:22.863Z,11.40
2019-03-21T01:19:53.849Z,9.23
2019-03-21T01:22:24.513Z,8.43
2019-03-21T01:24:55.207Z,8.90
2019-03-21T01:27:25.855Z,8.90
2019-03-21T01:29:57.431Z,7.40
2019-03-21T01:32:28.166Z,8.07
2019-03-21T01:34:58.900Z,8.97
2019-03-21T01:37:30.320Z,7.87
2019-03-21T01:40:00.994Z,8.10
2019-03-21T01:42:31.653Z,8.70
2019-03-21T01:45:03.411Z,8.03
2019-03-21T01:47:34.110Z,8.50
2019-03-21T01:50:05.145Z,8.47
2019-03-21T01:52:35.793Z,8.30
2019-03-21T01:55:07.825Z,9.20
2019-03-21T01:57:38.563Z,9.00
2019-03-21T02:00:14.358Z,8.20
2019-03-21T02:02:45.898Z,9.30
2019-03-21T02:05:16.617Z,8.73
2019-03-21T02:07:47.339Z,9.30
2019-03-21T02:10:18.918Z,8.50
2019-03-21T02:12:49.726Z,8.90
2019-03-21T02:15:20.598Z,9.93
2019-03-21T02:17:51.558Z,9.20
2019-03-21T02:20:22.571Z,8.67
2019-03-21T02:22:53.385Z,8.60
2019-03-21T02:25:26.915Z,9.30
2019-03-21T02:27:58.046Z,8.38
2019-03-21T02:30:32.235Z,8.40
2019-03-21T02:33:25.416Z,8.73
2019-03-21T02:35:56.187Z,9.13
2019-03-21T02:38:28.021Z,9.97
2019-03-21T02:41:00.126Z,9.70
2019-03-21T02:43:30.821Z,8.90
2019-03-21T02:46:01.959Z,8.80
2019-03-21T02:48:32.603Z,9.30
2019-03-21T02:51:03.427Z,9.10
2019-03-21T02:53:34.109Z,9.40
2019-03-21T02:56:06.174Z,9.07
2019-03-21T02:58:36.948Z,9.63
2019-03-21T03:01:07.615Z,9.80
2019-03-21T03:03:39.097Z,7.55
2019-03-21T03:06:09.914Z,7.93
2019-03-21T03:08:40.607Z,9.20
2019-03-21T03:11:11.660Z,9.28
2019-03-21T03:13:43.723Z,8.65
2019-03-21T03:16:14.428Z,9.90
2019-03-21T03:18:45.165Z,8.60
2019-03-21T03:21:15.833Z,10.07
2019-03-21T03:23:46.549Z,9.13
2019-03-21T03:26:17.206Z,8.70
2019-03-21T03:28:48.621Z,9.10
2019-03-21T03:31:19.301Z,9.20
2019-03-21T03:33:49.963Z,9.87
2019-03-21T03:36:20.665Z,8.93
2019-03-21T03:38:51.334Z,9.13
2019-03-21T03:41:22.111Z,9.17
2019-03-21T03:43:52.760Z,8.20
2019-03-21T03:46:23.453Z,8.80
2019-03-21T03:48:54.124Z,9.20
2019-03-21T03:51:24.903Z,9.60
2019-03-21T03:53:56.081Z,9.23
2019-03-21T03:56:26.917Z,8.17
2019-03-21T03:58:58.573Z,9.77
2019-03-21T04:01:30.051Z,8.55
2019-03-21T04:04:01.058Z,9.35
2019-03-21T04:06:31.736Z,9.00
2019-03-21T04:09:02.890Z,9.00
2019-03-21T04:11:33.959Z,7.97
2019-03-21T04:14:04.785Z,9.38
2019-03-21T04:16:35.456Z,8.87
2019-03-21T04:19:06.437Z,8.53
2019-03-21T04:21:37.278Z,9.10
2019-03-21T04:24:08.145Z,8.65
2019-03-21T04:26:39.016Z,10.03
2019-03-21T04:29:09.693Z,10.13
2019-03-21T04:31:40.435Z,9.70
2019-03-21T04:34:11.491Z,9.50
2019-03-21T04:36:42.163Z,9.75
2019-03-21T04:39:12.820Z,9.27
2019-03-21T04:41:44.263Z,10.30
2019-03-21T04:44:16.044Z,10.00
2019-03-21T04:46:46.731Z,9.57
2019-03-21T04:49:17.397Z,9.43
2019-03-21T04:51:48.087Z,10.30
2019-03-21T04:54:18.889Z,9.10
2019-03-21T04:56:49.548Z,8.30
2019-03-21T04:59:20.230Z,9.63
2019-03-21T05:01:52.228Z,8.97
2019-03-21T05:04:22.959Z,8.73
2019-03-21T05:06:53.626Z,9.27
2019-03-21T05:09:24.318Z,9.53
2019-03-21T05:11:55.818Z,9.47
2019-03-21T05:14:26.689Z,11.00
2019-03-21T05:16:57.425Z,10.20
2019-03-21T05:19:28.126Z,9.60
2019-03-21T05:21:58.816Z,10.50
2019-03-21T05:24:30.708Z,8.83
2019-03-21T05:27:02.453Z,10.53
2019-03-21T05:29:33.662Z,10.47
2019-03-21T05:32:04.415Z,8.90
2019-03-21T05:34:35.143Z,10.45
2019-03-21T05:37:05.891Z,9.97
2019-03-21T05:39:36.549Z,9.90
2019-03-21T05:42:14.387Z,9.57
2019-03-21T05:44:46.238Z,8.93
2019-03-21T05:47:16.939Z,8.80
2019-03-21T05:49:47.620Z,9.97
2019-03-21T05:52:18.291Z,9.07
2019-03-21T05:54:48.973Z,9.37
2019-03-21T05:57:19.700Z,9.10
2019-03-21T05:59:50.395Z,9.70
2019-03-21T06:02:22.025Z,8.70
2019-03-21T06:04:52.682Z,10.00
2019-03-21T06:07:37.146Z,9.00
2019-03-21T06:10:11.310Z,10.10
2019-03-21T06:12:43.161Z,9.50
2019-03-21T06:15:16.509Z,9.57
2019-03-21T06:17:54.907Z,8.98
2019-03-21T06:21:03.906Z,10.03
2019-03-21T06:24:19.674Z,10.33
2019-03-21T06:27:35.043Z,8.90
2019-03-21T06:30:08.106Z,8.58
2019-03-21T06:32:38.769Z,9.48
2019-03-21T06:35:23.285Z,8.73
2019-03-21T06:37:54.602Z,8.20
2019-03-21T06:40:25.401Z,8.50
2019-03-21T06:42:56.168Z,7.93
2019-03-21T06:45:27.769Z,8.03
2019-03-21T06:47:58.504Z,7.97
2019-03-21T06:50:29.156Z,9.50
2019-03-21T06:52:59.836Z,8.43
2019-03-21T06:55:31.655Z,8.98
2019-03-21T06:58:02.381Z,8.30
2019-03-21T07:00:33.047Z,7.70
2019-03-21T07:03:03.943Z,8.20
2019-03-21T07:05:34.604Z,9.07
2019-03-21T07:08:05.354Z,7.43
2019-03-21T07:10:36.083Z,8.07
2019-03-21T07:13:07.122Z,8.63
2019-03-21T07:15:37.811Z,6.70
2019-03-21T07:18:08.551Z,6.80
2019-03-21T07:20:39.273Z,6.90
2019-03-21T07:23:10.018Z,5.95
2019-03-21T07:25:40.761Z,6.00
2019-03-21T07:28:11.763Z,5.77
2019-03-21T07:30:42.417Z,6.03
2019-03-21T07:33:13.074Z,5.50
2019-03-21T07:35:43.905Z,5.63
2019-03-21T07:38:14.587Z,5.40
2019-03-21T07:40:45.420Z,6.40
2019-03-21T07:43:16.083Z,5.95
2019-03-21T07:45:46.773Z,5.67
2019-03-21T07:48:17.521Z,5.97
2019-03-21T07:50:48.181Z,5.23
2019-03-21T07:53:22.020Z,5.37
2019-03-21T07:55:51.936Z,4.93
2019-03-21T07:58:22.685Z,4.67
2019-03-21T08:00:53.423Z,5.00
2019-03-21T08:03:24.160Z,5.10
2019-03-21T08:05:54.839Z,4.70
2019-03-21T08:08:25.590Z,4.50
2019-03-21T08:10:57.355Z,4.00
2019-03-21T08:13:28.013Z,4.90
2019-03-21T08:15:58.683Z,4.90
2019-03-21T08:18:29.346Z,4.40
2019-03-21T08:21:00.276Z,4.43
2019-03-21T08:23:31.167Z,4.17
2019-03-21T08:26:02.592Z,4.45
2019-03-21T08:28:33.426Z,3.73
2019-03-21T08:31:18.108Z,4.43
2019-03-21T08:33:48.981Z,4.70
2019-03-21T08:36:19.831Z,4.37
2019-03-21T08:38:50.571Z,5.00
2019-03-21T08:41:21.211Z,4.60
2019-03-21T08:43:51.953Z,4.40
2019-03-21T08:46:22.809Z,4.55
2019-03-21T08:48:53.550Z,4.67
2019-03-21T08:51:24.446Z,4.13
2019-03-21T08:53:55.220Z,4.60
2019-03-21T08:56:25.886Z,3.97
2019-03-21T08:58:56.632Z,5.13
2019-03-21T09:01:27.350Z,4.30
2019-03-21T09:03:57.997Z,4.33
2019-03-21T09:06:28.656Z,3.97
2019-03-21T09:08:59.404Z,3.70
2019-03-21T09:11:30.071Z,4.13
2019-03-21T09:14:00.725Z,5.00
2019-03-21T09:16:31.452Z,4.57
2019-03-21T09:19:03.093Z,4.60
2019-03-21T09:21:33.743Z,4.90
2019-03-21T09:24:04.498Z,4.60
2019-03-21T09:26:35.331Z,4.15
2019-03-21T09:29:06.135Z,4.20
2019-03-21T09:31:38.622Z,4.70
2019-03-21T09:34:09.354Z,4.70
2019-03-21T09:36:40.012Z,5.27
2019-03-21T09:39:10.875Z,4.70
2019-03-21T09:41:41.519Z,5.10
2019-03-21T09:44:12.173Z,5.30
2019-03-21T09:46:50.737Z,5.07
2019-03-21T09:49:15.341Z,5.00
2019-03-21T09:51:45.995Z,5.60
2019-03-21T09:54:16.653Z,5.23
2019-03-21T09:56:47.374Z,5.13
2019-03-21T09:59:18.059Z,6.10
2019-03-21T10:01:48.710Z,4.80
2019-03-21T10:04:19.368Z,5.57
2019-03-21T10:06:50.031Z,5.83
2019-03-21T10:09:20.875Z,6.17
2019-03-21T10:11:51.562Z,5.80
2019-03-21T10:14:22.209Z,5.43
2019-03-21T10:16:52.881Z,6.43
2019-03-21T10:19:24.810Z,6.60
2019-03-21T10:21:55.636Z,6.33
2019-03-21T10:24:27.015Z,5.50
2019-03-21T10:26:58.054Z,5.70
2019-03-21T10:29:28.788Z,6.33
2019-03-21T10:31:59.600Z,6.10
2019-03-21T10:34:30.332Z,5.50
2019-03-21T10:37:01.089Z,6.30
2019-03-21T10:39:31.765Z,6.53
2019-03-21T10:42:02.597Z,5.20
2019-03-21T10:44:34.029Z,5.95
2019-03-21T10:47:04.958Z,6.10
2019-03-21T10:49:35.625Z,5.93
2019-03-21T10:52:06.468Z,6.87
2019-03-21T10:54:37.164Z,6.12
2019-03-21T10:57:07.970Z,7.70
2019-03-21T10:59:38.636Z,6.28
2019-03-21T11:02:10.218Z,6.12
2019-03-21T11:04:40.970Z,6.40
2019-03-21T11:07:08.928Z,6.10
2019-03-21T11:09:39.663Z,6.70
2019-03-21T11:12:10.603Z,6.63
2019-03-21T11:14:41.423Z,6.20
2019-03-21T11:17:12.169Z,7.13
2019-03-21T11:19:43.005Z,6.13
2019-03-21T11:22:13.727Z,5.80
2019-03-21T11:24:44.479Z,5.77
2019-03-21T11:27:16.191Z,5.63
2019-03-21T11:29:46.963Z,7.30
2019-03-21T11:32:17.706Z,6.60
2019-03-21T11:34:48.457Z,5.53
2019-03-21T11:37:19.125Z,5.70
2019-03-21T11:39:49.800Z,6.27
2019-03-21T11:42:20.475Z,6.20
2019-03-21T11:44:52.238Z,5.90
2019-03-21T11:47:22.994Z,6.63
2019-03-21T11:49:53.794Z,6.50
2019-03-21T11:52:24.484Z,7.17
2019-03-21T11:54:55.328Z,7.67
2019-03-21T11:57:26.057Z,8.87
2019-03-21T11:59:56.835Z,7.40
2019-03-21T12:02:27.682Z,7.57
2019-03-21T12:04:58.444Z,8.13
2019-03-21T12:07:29.215Z,7.37
2019-03-21T12:10:00.848Z,6.43
2019-03-21T12:12:31.954Z,6.20
2019-03-21T12:15:02.723Z,6.90
2019-03-21T12:17:33.467Z,6.07
2019-03-21T12:20:06.532Z,7.57
2019-03-21T12:22:37.199Z,7.20
2019-03-21T12:25:08.608Z,6.33
2019-03-21T12:27:39.682Z,7.47
2019-03-21T12:30:11.963Z,6.80
2019-03-21T12:32:42.849Z,6.80
2019-03-21T12:35:13.603Z,7.93
2019-03-21T12:37:44.342Z,7.10
2019-03-21T12:40:15.243Z,7.47
2019-03-21T12:42:45.913Z,7.20
2019-03-21T12:45:17.485Z,7.80
2019-03-21T12:47:48.379Z,7.30
2019-03-21T12:50:19.209Z,6.53
2019-03-21T12:52:49.975Z,7.33
2019-03-21T12:55:20.816Z,7.43
2019-03-21T12:57:51.577Z,7.53
2019-03-21T13:00:37.956Z,7.50
2019-03-21T13:03:09.442Z,6.90
2019-03-21T13:05:40.282Z,7.22
2019-03-21T13:08:11.176Z,7.63
2019-03-21T13:10:43.280Z,7.50
2019-03-21T13:13:14.718Z,7.62
2019-03-21T13:15:45.567Z,8.00
2019-03-21T13:18:16.391Z,7.67
2019-03-21T13:20:47.147Z,8.03
2019-03-21T13:23:17.862Z,7.67
2019-03-21T13:25:48.785Z,7.80
2019-03-21T13:28:20.532Z,7.27
2019-03-21T13:30:51.217Z,8.17
2019-03-21T13:33:21.890Z,7.63
2019-03-21T13:35:52.593Z,7.10
2019-03-21T13:38:23.346Z,7.10
2019-03-21T13:40:54.060Z,7.90
2019-03-21T13:43:24.918Z,7.90
2019-03-21T13:45:55.666Z,6.73
2019-03-21T13:48:26.326Z,7.70
2019-03-21T13:50:57.090Z,8.40
2019-03-21T13:53:28.029Z,8.43
2019-03-21T13:55:58.792Z,7.30
2019-03-21T13:58:29.474Z,6.80
2019-03-21T14:01:00.490Z,9.80
2019-03-21T14:03:31.211Z,8.27
2019-03-21T14:06:02.036Z,7.90
2019-03-21T14:08:32.724Z,8.00
2019-03-21T14:11:04.250Z,7.60
2019-03-21T14:13:34.929Z,8.00
2019-03-21T14:16:06.819Z,7.10
2019-03-21T14:18:37.564Z,7.60
2019-03-21T14:21:08.412Z,8.97
2019-03-21T14:23:43.580Z,8.20
2019-03-21T14:26:11.774Z,8.70
2019-03-21T14:28:42.561Z,8.07
2019-03-21T14:31:13.345Z,8.00
2019-03-21T14:33:44.279Z,7.87
2019-03-21T14:36:15.781Z,8.97
2019-03-21T14:38:46.579Z,7.20
2019-03-21T14:41:17.250Z,8.93
2019-03-21T14:43:48.051Z,7.67
2019-03-21T14:46:18.805Z,8.10
2019-03-21T14:48:49.493Z,7.63
2019-03-21T14:51:20.229Z,8.23
2019-03-21T14:53:50.912Z,8.20
2019-03-21T14:56:21.567Z,7.65
2019-03-21T14:58:52.256Z,8.00
2019-03-21T15:01:23.042Z,7.60
2019-03-21T15:03:54.003Z,8.33
2019-03-21T15:06:24.800Z,7.90
2019-03-21T15:08:55.590Z,7.83
2019-03-21T15:11:26.420Z,7.40
2019-03-21T15:13:57.279Z,8.27
2019-03-21T15:16:28.021Z,6.87
2019-03-21T15:18:58.719Z,7.43
2019-03-21T15:21:29.477Z,7.67
2019-03-21T15:24:00.245Z,6.53
2019-03-21T15:26:31.069Z,6.50
2019-03-21T15:29:01.837Z,7.47
2019-03-21T15:31:32.645Z,7.70
2019-03-21T15:34:03.327Z,7.53
2019-03-21T15:36:34.005Z,7.07
2019-03-21T15:39:06.978Z,6.60
2019-03-21T15:41:38.633Z,7.37
2019-03-21T15:44:09.709Z,7.80
2019-03-21T15:46:40.459Z,6.63
2019-03-21T15:49:11.167Z,8.67
2019-03-21T15:51:41.832Z,6.30
2019-03-21T15:54:12.591Z,7.97
2019-03-21T15:56:43.257Z,6.93
2019-03-21T15:59:14.021Z,6.97
2019-03-21T16:01:44.849Z,7.67
2019-03-21T16:04:15.547Z,6.90
2019-03-21T16:06:46.395Z,7.57
2019-03-21T16:09:18.305Z,7.55
2019-03-21T16:11:49.015Z,7.27
2019-03-21T16:14:19.719Z,8.00
2019-03-21T16:16:50.407Z,7.75
2019-03-21T16:19:22.079Z,6.83
2019-03-21T16:21:52.771Z,8.73
2019-03-21T16:24:23.463Z,7.30
2019-03-21T16:26:54.235Z,7.20
2019-03-21T16:29:24.993Z,6.43
2019-03-21T16:31:55.750Z,7.53
2019-03-21T16:34:26.647Z,7.37
2019-03-21T16:36:57.405Z,7.00
2019-03-21T16:39:28.178Z,6.60
2019-03-21T16:41:58.833Z,7.83
2019-03-21T16:44:29.592Z,7.60
2019-03-21T16:47:00.263Z,7.57
2019-03-21T16:49:31.096Z,8.10
2019-03-21T16:52:02.854Z,8.53
2019-03-21T16:54:33.637Z,8.47
2019-03-21T16:57:04.365Z,7.23
2019-03-21T16:59:35.066Z,8.67
2019-03-21T17:02:05.793Z,7.90
2019-03-21T17:04:36.593Z,6.50
2019-03-21T17:07:07.407Z,7.27
2019-03-21T17:09:39.171Z,8.20
2019-03-21T17:12:09.908Z,7.90
2019-03-21T17:14:40.603Z,7.70
2019-03-21T17:17:11.253Z,7.80
2019-03-21T17:19:42.142Z,8.37
2019-03-21T17:22:12.978Z,7.30
2019-03-21T17:24:43.761Z,8.25
2019-03-21T17:27:14.637Z,8.03
2019-03-21T17:29:45.389Z,7.73
2019-03-21T17:32:17.364Z,7.53
2019-03-21T17:34:48.480Z,7.33
2019-03-21T17:37:19.310Z,7.10
2019-03-21T17:39:50.110Z,9.00
2019-03-21T17:42:21.231Z,7.53
2019-03-21T17:44:52.044Z,7.70
2019-03-21T17:47:22.802Z,7.57
2019-03-21T17:49:53.510Z,8.28
2019-03-21T17:52:24.197Z,7.97
2019-03-21T17:54:54.907Z,7.20
2019-03-21T17:57:34.303Z,7.73
2019-03-21T17:59:58.187Z,8.80
2019-03-21T18:02:29.093Z,8.13
2019-03-21T18:04:59.872Z,9.13
2019-03-21T18:07:30.616Z,7.20
2019-03-21T18:10:01.305Z,8.30
2019-03-21T18:12:31.976Z,7.93
2019-03-21T18:15:02.666Z,9.20
2019-03-21T18:17:33.364Z,7.87
2019-03-21T18:20:04.447Z,8.87
2019-03-21T18:22:35.098Z,10.30
2019-03-21T18:25:06.650Z,8.90
2019-03-21T18:27:37.343Z,8.47
2019-03-21T18:30:08.541Z,8.68
2019-03-21T18:32:40.139Z,8.63
2019-03-21T18:35:11.979Z,8.97
2019-03-21T18:37:42.726Z,10.10
2019-03-21T18:40:13.890Z,11.00
2019-03-21T18:42:44.699Z,10.45
2019-03-21T18:45:16.187Z,10.60
2019-03-21T18:47:47.082Z,9.50
2019-03-21T18:50:18.444Z,8.60
2019-03-21T18:52:49.250Z,9.17
2019-03-21T18:55:20.111Z,8.33
2019-03-21T18:57:51.102Z,7.70
2019-03-21T19:00:22.118Z,9.43
2019-03-21T19:02:52.862Z,9.27
2019-03-21T19:05:23.709Z,8.97
2019-03-21T19:07:54.552Z,7.75
2019-03-21T19:10:25.503Z,8.93
2019-03-21T19:12:56.293Z,8.93
2019-03-21T19:15:27.058Z,10.47
2019-03-21T19:17:57.774Z,8.53
2019-03-21T19:20:28.546Z,10.60
2019-03-21T19:22:59.235Z,9.10
2019-03-21T19:25:30.004Z,9.73
2019-03-21T19:28:00.743Z,9.40
2019-03-21T19:30:31.505Z,7.10
2019-03-21T19:33:02.205Z,8.90
2019-03-21T19:35:32.878Z,9.30
2019-03-21T19:38:03.563Z,9.53
2019-03-21T19:40:34.414Z,9.27
2019-03-21T19:43:05.473Z,7.30
2019-03-21T19:45:36.262Z,7.57
2019-03-21T19:48:07.272Z,7.70
2019-03-21T19:50:38.060Z,9.00
2019-03-21T19:53:08.723Z,10.07
2019-03-21T19:55:39.401Z,7.70
2019-03-21T19:58:12.387Z,8.53
2019-03-21T20:00:43.124Z,9.30
2019-03-21T20:03:14.664Z,8.10
2019-03-21T20:05:45.325Z,9.60
2019-03-21T20:08:16.124Z,8.73
2019-03-21T20:10:46.866Z,8.83
2019-03-21T20:13:17.570Z,8.67
2019-03-21T20:15:49.335Z,9.45
2019-03-21T20:18:19.999Z,9.80
2019-03-21T20:20:50.668Z,9.67
2019-03-21T20:23:21.361Z,9.53
2019-03-21T20:25:52.048Z,8.87
2019-03-21T20:28:22.786Z,9.83
2019-03-21T20:30:53.436Z,9.23
2019-03-21T20:33:25.226Z,9.87
2019-03-21T20:35:55.875Z,8.80
2019-03-21T20:38:26.638Z,9.10
2019-03-21T20:40:57.404Z,9.00
2019-03-21T20:43:28.226Z,9.13
2019-03-21T20:45:59.054Z,8.87
2019-03-21T20:48:30.667Z,8.90
2019-03-21T20:51:02.664Z,9.33
2019-03-21T20:53:33.368Z,8.63
2019-03-21T20:56:04.092Z,9.63
2019-03-21T20:58:34.772Z,11.28
2019-03-21T21:01:05.759Z,9.27
2019-03-21T21:03:36.431Z,9.40
2019-03-21T21:06:07.389Z,9.80
2019-03-21T21:08:38.058Z,9.83
2019-03-21T21:11:08.782Z,9.70
2019-03-21T21:13:39.567Z,9.23
2019-03-21T21:16:10.294Z,10.47
2019-03-21T21:18:41.980Z,10.18
2019-03-21T21:21:12.783Z,9.53
2019-03-21T21:23:43.458Z,9.93
2019-03-21T21:26:14.293Z,10.63
2019-03-21T21:28:44.910Z,10.30
2019-03-21T21:31:15.690Z,10.20
2019-03-21T21:33:47.729Z,10.45
2019-03-21T21:36:22.140Z,11.23
2019-03-21T21:38:50.793Z,10.50
2019-03-21T21:41:21.628Z,10.47
2019-03-21T21:43:52.309Z,10.33
2019-03-21T21:46:23.058Z,11.07
2019-03-21T21:48:53.731Z,10.20
2019-03-21T21:51:24.383Z,9.60
2019-03-21T21:53:55.072Z,11.07
2019-03-21T21:56:25.836Z,10.43
2019-03-21T21:58:56.546Z,11.43
2019-03-21T22:01:27.215Z,10.57
2019-03-21T22:04:04.717Z,10.87
2019-03-21T22:06:30.354Z,11.27
2019-03-21T22:09:01.345Z,12.40
2019-03-21T22:11:32.080Z,11.50
2019-03-21T22:14:02.764Z,12.37
2019-03-21T22:16:33.609Z,10.23
2019-03-21T22:19:04.366Z,11.70
2019-03-21T22:21:35.037Z,12.47
2019-03-21T22:24:05.788Z,10.58
2019-03-21T22:26:36.461Z,10.03
2019-03-21T22:29:07.160Z,11.63
2019-03-21T22:31:37.825Z,10.60
2019-03-21T22:34:08.590Z,11.17
2019-03-21T22:36:48.872Z,12.03
2019-03-21T22:39:12.847Z,12.00
2019-03-21T22:41:43.604Z,11.13
2019-03-21T22:44:14.300Z,11.23
2019-03-21T22:46:44.957Z,11.30
2019-03-21T22:49:15.691Z,10.47
2019-03-21T22:51:46.439Z,11.00
2019-03-21T22:54:17.135Z,10.20
2019-03-21T22:56:47.894Z,10.63
2019-03-21T22:59:18.577Z,11.30
2019-03-21T23:01:49.585Z,10.07
2019-03-21T23:04:20.337Z,11.75
2019-03-21T23:06:51.162Z,11.50
2019-03-21T23:09:21.823Z,12.57
2019-03-21T23:11:52.501Z,11.67
2019-03-21T23:14:23.254Z,10.87
2019-03-21T23:16:54.426Z,10.73
2019-03-21T23:19:25.049Z,11.30
2019-03-21T23:21:55.782Z,10.27
2019-03-21T23:24:26.453Z,10.48
2019-03-21T23:26:57.141Z,10.70
2019-03-21T23:29:27.874Z,10.60
2019-03-21T23:31:58.535Z,11.22
2019-03-21T23:34:29.291Z,10.20
2019-03-21T23:36:59.961Z,10.73
2019-03-21T23:39:30.680Z,12.57
2019-03-21T23:42:01.346Z,12.17
2019-03-21T23:44:32.041Z,11.00
2019-03-21T23:47:02.961Z,11.45
2019-03-21T23:49:35.260Z,12.43
2019-03-21T23:52:05.924Z,11.10
2019-03-21T23:54:36.669Z,9.53
2019-03-21T23:57:07.358Z,11.43
2019-03-21T23:59:38.085Z,10.40
